createdAt,value
2018-12-16T00:01:47.074Z,9.25
2018-12-16T00:04:21.008Z,9.35
2018-12-16T00:06:56.356Z,8.58
2018-12-16T00:09:27.189Z,9.28
2018-12-16T00:12:04.468Z,8.58
2018-12-16T00:14:33.572Z,9.38
2018-12-16T00:17:04.043Z,9.35
2018-12-16T00:19:33.603Z,9.20
2018-12-16T00:22:05.614Z,9.33
2018-12-16T00:24:34.851Z,8.98
2018-12-16T00:27:09.656Z,9.65
2018-12-16T00:29:38.342Z,8.33
2018-12-16T00:32:11.718Z,8.20
2018-12-16T00:34:40.655Z,8.33
2018-12-16T00:37:14.045Z,9.10
2018-12-16T00:39:44.335Z,8.60
2018-12-16T00:42:12.864Z,9.08
2018-12-16T00:44:41.241Z,8.18
2018-12-16T00:47:15.403Z,8.58
2018-12-16T00:49:46.250Z,8.98
2018-12-16T00:52:20.087Z,8.95
2018-12-16T00:54:53.781Z,8.90
2018-12-16T00:57:32.224Z,8.60
2018-12-16T01:00:06.112Z,8.40
2018-12-16T01:02:46.794Z,8.30
2018-12-16T01:05:20.839Z,8.55
2018-12-16T09:59:54.988Z,13.53
2018-12-16T10:02:27.924Z,11.57
2018-12-16T10:04:58.838Z,13.63
2018-12-16T10:07:29.098Z,13.00
2018-12-16T10:09:57.974Z,14.37
2018-12-16T10:12:27.023Z,15.53
2018-12-16T10:14:56.617Z,14.17
2018-12-16T10:17:30.721Z,13.97
2018-12-16T10:20:00.847Z,12.90
2018-12-16T10:22:30.677Z,11.60
2018-12-16T10:24:59.007Z,12.93
2018-12-16T10:27:27.294Z,12.73
2018-12-16T10:29:55.663Z,13.10
2018-12-16T10:32:28.762Z,14.43
2018-12-16T10:34:57.082Z,14.10
2018-12-16T10:37:25.380Z,12.10
2018-12-16T10:39:54.807Z,14.83
2018-12-16T10:42:30.530Z,14.90
2018-12-16T10:45:00.165Z,13.83
2018-12-16T10:47:34.108Z,14.93
2018-12-16T10:50:07.902Z,14.63
2018-12-16T10:52:38.287Z,14.07
2018-12-16T10:55:06.958Z,13.70
2018-12-16T10:57:35.367Z,14.23
2018-12-16T11:00:08.592Z,13.73
2018-12-16T11:02:38.890Z,12.57
2018-12-16T11:05:07.462Z,12.13
2018-12-16T11:07:36.024Z,13.13
2018-12-16T11:10:04.451Z,12.10
2018-12-16T11:12:32.863Z,11.77
2018-12-16T11:15:01.163Z,11.53
2018-12-16T11:17:33.135Z,11.37
2018-12-16T11:20:01.555Z,11.07
2018-12-16T12:02:34.289Z,5.97
2018-12-16T12:08:48.703Z,6.23
2018-12-16T12:11:26.549Z,5.03
2018-12-16T12:24:25.113Z,4.67
2018-12-16T12:27:09.096Z,3.90
2018-12-16T12:33:20.780Z,3.90
2018-12-16T12:35:53.887Z,4.50
2018-12-16T12:38:22.222Z,4.97
2018-12-16T12:44:33.843Z,4.00
2018-12-16T12:47:49.222Z,4.53
2018-12-16T12:51:03.838Z,4.37
2018-12-16T12:54:03.059Z,4.70
2018-12-16T13:32:01.127Z,5.50
2018-12-16T13:44:03.202Z,4.67
2018-12-16T13:46:41.524Z,5.10
2018-12-16T13:49:10.244Z,4.37
2018-12-16T13:51:42.181Z,4.30
2018-12-16T14:00:48.907Z,6.30
2018-12-16T14:03:21.857Z,5.17
2018-12-16T14:06:07.959Z,5.13
2018-12-16T14:09:02.119Z,5.07
2018-12-16T14:11:37.706Z,4.87
2018-12-16T14:14:07.342Z,5.33
2018-12-16T14:16:43.449Z,5.37
2018-12-16T14:25:36.855Z,4.67
2018-12-16T14:28:05.287Z,5.40
2018-12-16T14:30:33.698Z,5.10
2018-12-16T14:33:03.092Z,6.00
2018-12-16T15:00:21.692Z,4.80
2018-12-16T15:02:51.978Z,5.20
2018-12-16T15:05:27.234Z,5.70
2018-12-16T15:08:03.415Z,6.10
2018-12-16T15:10:36.584Z,6.43
2018-12-16T15:13:16.082Z,5.30
2018-12-16T15:15:52.719Z,5.97
2018-12-16T15:18:32.326Z,5.80
2018-12-16T15:21:03.269Z,5.23
2018-12-16T15:23:36.851Z,5.80
2018-12-16T15:26:08.173Z,4.33
2018-12-16T15:28:46.768Z,4.77
2018-12-16T15:31:20.851Z,5.17
2018-12-16T15:33:57.330Z,5.17
2018-12-16T15:36:34.633Z,5.23
2018-12-16T15:39:07.135Z,5.37
2018-12-16T15:41:39.627Z,3.73
2018-12-16T15:44:09.932Z,4.30
2018-12-16T15:46:43.145Z,3.77
2018-12-16T15:49:11.934Z,5.00
2018-12-16T15:51:43.034Z,3.97
2018-12-16T15:57:46.321Z,5.33
2018-12-16T16:00:16.006Z,3.67
2018-12-16T16:03:00.232Z,3.50
2018-12-16T16:12:35.308Z,6.37
2018-12-16T16:18:21.828Z,5.83
2018-12-16T16:24:12.008Z,6.60
2018-12-16T16:33:12.700Z,5.60
2018-12-16T16:45:35.187Z,6.10
2018-12-16T16:51:39.196Z,7.07
2018-12-16T16:57:29.849Z,7.30
2018-12-16T17:09:35.968Z,7.10
2018-12-16T17:25:23.407Z,6.33
2018-12-16T17:27:54.972Z,6.70
2018-12-16T17:30:23.378Z,7.00
2018-12-16T17:32:51.762Z,7.67
2018-12-16T17:35:27.459Z,6.80
2018-12-16T17:38:10.378Z,7.10
2018-12-16T17:40:45.360Z,7.87
2018-12-16T17:43:24.678Z,7.73
2018-12-16T17:45:57.152Z,8.10
2018-12-16T17:48:29.057Z,8.67
2018-12-16T17:51:02.532Z,9.03
2018-12-16T17:53:30.958Z,9.77
2018-12-16T17:56:04.777Z,10.13
2018-12-16T17:58:37.865Z,13.93
2018-12-16T18:01:10.531Z,13.10
2018-12-16T18:03:48.015Z,13.43
2018-12-16T18:06:22.303Z,13.23
2018-12-16T18:09:01.462Z,12.27
2018-12-16T18:11:34.748Z,11.43
2018-12-16T18:14:03.397Z,12.53
2018-12-16T18:16:32.923Z,12.67
2018-12-16T18:19:01.384Z,10.30
2018-12-16T18:21:32.459Z,10.23
2018-12-16T18:24:00.903Z,11.83
2018-12-16T18:26:32.977Z,13.07
2018-12-16T18:29:01.478Z,12.53
2018-12-16T18:31:29.931Z,11.80
2018-12-16T18:33:58.280Z,10.63
2018-12-16T18:36:27.047Z,11.27
2018-12-16T18:38:57.718Z,12.63
2018-12-16T18:41:29.425Z,29.07
2018-12-16T18:43:57.955Z,31.93
2018-12-16T18:46:27.355Z,21.37
2018-12-16T18:48:55.651Z,20.27
2018-12-16T18:51:23.973Z,17.87
2018-12-16T18:53:52.285Z,17.60
2018-12-16T18:56:20.648Z,16.13
2018-12-16T18:58:49.155Z,14.77
2018-12-16T19:01:17.709Z,14.87
2018-12-16T19:03:46.166Z,13.87
2018-12-16T19:06:14.645Z,20.40
2018-12-16T19:08:43.069Z,19.63
2018-12-16T19:11:11.410Z,17.27
2018-12-16T19:13:39.777Z,16.77
2018-12-16T19:16:08.295Z,18.43
2018-12-16T19:18:36.747Z,18.03
2018-12-16T19:21:05.190Z,23.17
2018-12-16T19:23:34.605Z,16.80
2018-12-16T19:26:04.208Z,20.63
2018-12-16T19:28:32.619Z,23.03
2018-12-16T19:31:00.976Z,19.47
2018-12-16T19:33:30.555Z,19.13
2018-12-16T19:35:58.902Z,18.17
2018-12-16T19:38:27.431Z,50.23
2018-12-16T19:40:55.748Z,22.37
2018-12-16T19:43:24.170Z,30.83
2018-12-16T19:45:53.541Z,22.23
2018-12-16T19:48:21.945Z,22.70
2018-12-16T19:50:54.122Z,25.30
2018-12-16T19:53:23.352Z,35.70
2018-12-16T19:55:51.730Z,75.80
2018-12-16T19:58:20.389Z,97.27
2018-12-16T20:00:48.945Z,20.13
2018-12-16T20:03:18.506Z,24.13
2018-12-16T20:05:52.460Z,17.37
2018-12-16T20:08:21.012Z,26.50
2018-12-16T20:10:49.404Z,29.47
2018-12-16T20:13:17.803Z,33.50
2018-12-16T20:15:46.094Z,26.80
2018-12-16T20:18:14.366Z,20.73
2018-12-16T20:20:42.694Z,25.67
2018-12-16T20:23:10.991Z,20.20
2018-12-16T20:25:39.299Z,13.13
2018-12-16T20:28:07.775Z,10.60
2018-12-16T20:30:36.264Z,11.63
2018-12-16T20:33:04.631Z,12.80
2018-12-16T20:35:33.236Z,12.30
2018-12-16T20:38:01.892Z,21.50
2018-12-16T20:40:30.738Z,12.40
2018-12-16T20:42:59.645Z,13.67
2018-12-16T20:45:27.943Z,35.70
2018-12-16T20:47:56.515Z,15.17
2018-12-16T20:50:26.069Z,14.33
2018-12-16T20:52:54.435Z,13.23
2018-12-16T20:55:22.882Z,13.97
2018-12-16T20:57:51.224Z,14.73
2018-12-16T21:00:21.494Z,13.17
2018-12-16T21:02:58.882Z,16.27
2018-12-16T21:05:27.446Z,16.17
2018-12-16T21:07:56.007Z,19.10
2018-12-16T21:10:24.387Z,16.57
2018-12-16T21:12:58.287Z,16.30
2018-12-16T21:15:32.063Z,12.83
2018-12-16T21:18:05.925Z,15.20
2018-12-16T21:20:34.294Z,17.17
2018-12-16T21:23:02.883Z,18.13
2018-12-16T21:25:31.663Z,21.97
2018-12-16T21:27:59.991Z,26.67
2018-12-16T21:30:28.385Z,28.50
2018-12-16T21:32:56.944Z,23.43
2018-12-16T21:35:25.446Z,20.20
2018-12-16T21:37:53.778Z,17.13
2018-12-16T21:40:22.143Z,18.07
2018-12-16T21:42:50.507Z,19.03
2018-12-16T21:45:18.838Z,18.40
2018-12-16T21:47:47.280Z,17.17
2018-12-16T21:50:17.347Z,19.60
2018-12-16T21:52:46.908Z,15.23
2018-12-16T21:55:17.355Z,16.60
2018-12-16T21:57:46.432Z,16.40
2018-12-16T22:00:17.888Z,14.93
2018-12-16T22:02:51.397Z,58.27
2018-12-16T22:05:22.481Z,14.43
2018-12-16T22:07:51.114Z,15.73
2018-12-16T22:10:19.508Z,14.90
2018-12-16T22:12:47.826Z,17.60
2018-12-16T22:15:17.285Z,11.40
2018-12-16T22:17:45.608Z,8.20
2018-12-16T22:20:17.628Z,8.87
2018-12-16T22:22:46.002Z,9.27
2018-12-16T22:25:16.236Z,8.53
2018-12-16T22:27:44.565Z,7.67
2018-12-16T22:30:12.990Z,9.37
2018-12-16T22:32:41.332Z,11.20
2018-12-16T22:35:13.981Z,9.93
2018-12-16T22:37:45.969Z,9.17
2018-12-16T22:40:18.052Z,13.53
2018-12-16T22:42:46.355Z,18.20
2018-12-16T22:45:16.399Z,21.13
2018-12-16T22:47:44.826Z,18.53
